createdAt,value
2018-02-25T00:02:12.642Z,99.20
2018-02-25T00:04:40.894Z,99.20
2018-02-25T00:07:09.145Z,99.50
2018-02-25T00:09:37.399Z,99.50
2018-02-25T00:12:05.656Z,99.80
2018-02-25T00:14:33.894Z,99.70
2018-02-25T00:17:02.155Z,99.90
2018-02-25T00:19:30.395Z,99.90
2018-02-25T00:21:58.654Z,99.90
2018-02-25T00:24:26.904Z,99.90
2018-02-25T00:26:55.152Z,99.90
2018-02-25T00:29:23.410Z,99.90
2018-02-25T00:31:51.662Z,99.90
2018-02-25T00:34:19.910Z,99.90
2018-02-25T00:36:48.941Z,99.90
2018-02-25T00:39:17.189Z,99.90
2018-02-25T00:41:46.203Z,99.90
2018-02-25T00:44:14.455Z,99.90
2018-02-25T00:46:43.477Z,99.90
2018-02-25T00:49:11.729Z,99.90
2018-02-25T00:51:39.981Z,99.90
2018-02-25T00:54:08.239Z,99.90
2018-02-25T00:56:36.490Z,99.90
2018-02-25T00:59:04.745Z,99.90
2018-02-25T01:01:32.989Z,99.90
2018-02-25T01:04:02.014Z,99.90
2018-02-25T01:06:30.263Z,99.90
2018-02-25T01:08:59.291Z,99.90
2018-02-25T01:11:27.538Z,99.90
2018-02-25T01:13:56.550Z,99.90
2018-02-25T01:16:24.809Z,99.90
2018-02-25T01:18:53.057Z,99.90
2018-02-25T01:21:21.309Z,99.90
2018-02-25T01:23:50.321Z,99.90
2018-02-25T01:26:18.576Z,99.90
2018-02-25T01:28:46.829Z,99.90
2018-02-25T01:31:15.087Z,99.90
2018-02-25T01:33:43.341Z,99.90
2018-02-25T01:36:12.355Z,99.90
2018-02-25T01:38:40.607Z,99.90
2018-02-25T01:41:08.863Z,99.90
2018-02-25T01:43:37.110Z,99.90
2018-02-25T01:46:05.375Z,99.90
2018-02-25T01:48:33.618Z,99.90
2018-02-25T01:51:05.138Z,99.90
2018-02-25T01:53:33.391Z,99.90
2018-02-25T01:56:01.640Z,99.90
2018-02-25T01:58:29.886Z,99.90
2018-02-25T02:00:58.905Z,99.90
2018-02-25T02:03:27.169Z,99.90
2018-02-25T02:05:56.195Z,99.90
2018-02-25T02:08:24.446Z,99.90
2018-02-25T02:10:52.696Z,99.90
2018-02-25T02:13:21.722Z,99.90
2018-02-25T02:15:49.974Z,99.90
2018-02-25T02:18:19.007Z,99.90
2018-02-25T02:20:47.252Z,99.90
2018-02-25T02:23:16.358Z,99.90
2018-02-25T02:25:44.617Z,99.90
2018-02-25T02:28:13.633Z,99.90
2018-02-25T02:30:41.899Z,99.90
2018-02-25T02:33:10.160Z,99.90
2018-02-25T02:35:39.175Z,99.90
2018-02-25T02:38:07.427Z,99.90
2018-02-25T02:40:36.455Z,99.90
2018-02-25T02:43:04.710Z,99.90
2018-02-25T02:45:32.982Z,99.90
2018-02-25T02:48:01.994Z,99.90
2018-02-25T02:50:30.243Z,99.90
2018-02-25T02:52:59.271Z,99.90
2018-02-25T02:55:27.555Z,99.90
2018-02-25T02:57:56.545Z,99.90
2018-02-25T03:00:24.803Z,99.90
2018-02-25T03:02:53.059Z,99.90
2018-02-25T03:05:22.088Z,99.90
2018-02-25T03:07:50.344Z,99.90
2018-02-25T03:10:18.594Z,99.90
2018-02-25T03:12:47.625Z,99.90
2018-02-25T03:15:15.879Z,99.90
2018-02-25T03:17:44.138Z,99.90
2018-02-25T03:20:13.167Z,99.90
2018-02-25T03:22:41.421Z,99.90
2018-02-25T03:25:10.430Z,99.90
2018-02-25T03:27:38.693Z,99.90
2018-02-25T03:30:06.955Z,99.90
2018-02-25T03:32:35.978Z,99.90
2018-02-25T03:35:04.226Z,99.90
2018-02-25T03:37:33.259Z,99.90
2018-02-25T03:40:01.514Z,99.90
2018-02-25T03:42:29.770Z,99.90
2018-02-25T03:44:58.799Z,99.90
2018-02-25T03:47:27.054Z,99.90
2018-02-25T03:49:55.304Z,99.90
2018-02-25T03:52:24.332Z,99.90
2018-02-25T03:54:52.598Z,99.90
2018-02-25T03:57:20.860Z,99.90
2018-02-25T03:59:49.869Z,99.90
2018-02-25T04:02:18.132Z,99.90
2018-02-25T04:04:47.152Z,99.90
2018-02-25T04:07:15.410Z,99.90
2018-02-25T04:09:43.659Z,99.90
2018-02-25T04:12:11.924Z,99.90
2018-02-25T04:14:40.174Z,99.90
2018-02-25T04:17:08.431Z,99.90
2018-02-25T04:19:36.691Z,99.90
2018-02-25T04:22:05.096Z,99.90
2018-02-25T04:24:33.355Z,99.90
2018-02-25T04:27:01.610Z,99.90
2018-02-25T04:29:30.629Z,99.90
2018-02-25T04:31:58.882Z,99.90
2018-02-25T04:34:27.898Z,99.90
2018-02-25T04:36:56.158Z,99.90
2018-02-25T04:39:24.413Z,99.90
2018-02-25T04:41:53.444Z,99.90
2018-02-25T04:44:21.694Z,99.90
2018-02-25T04:46:50.707Z,99.90
2018-02-25T04:49:18.966Z,99.90
2018-02-25T04:51:47.217Z,99.90
2018-02-25T04:54:15.470Z,99.90
2018-02-25T04:56:43.721Z,99.90
2018-02-25T04:59:11.974Z,99.90
2018-02-25T05:01:40.254Z,99.90
2018-02-25T05:04:08.485Z,99.90
2018-02-25T05:06:36.735Z,99.90
2018-02-25T05:09:04.994Z,99.90
2018-02-25T05:11:33.245Z,99.90
2018-02-25T05:14:01.510Z,99.90
2018-02-25T05:16:30.525Z,99.90
2018-02-25T05:18:58.795Z,99.90
2018-02-25T05:21:27.044Z,99.90
2018-02-25T05:23:56.073Z,99.90
2018-02-25T05:26:24.321Z,99.90
2018-02-25T05:28:53.352Z,99.90
2018-02-25T05:31:21.612Z,99.90
2018-02-25T05:33:49.868Z,99.90
2018-02-25T05:36:18.878Z,99.90
2018-02-25T05:38:47.145Z,99.90
2018-02-25T05:41:16.154Z,99.90
2018-02-25T05:43:44.415Z,99.90
2018-02-25T05:46:12.662Z,99.90
2018-02-25T05:48:40.937Z,99.90
2018-02-25T05:51:09.187Z,99.90
2018-02-25T05:53:37.454Z,99.90
2018-02-25T05:56:05.698Z,99.90
2018-02-25T05:58:33.961Z,99.90
2018-02-25T06:01:02.974Z,99.90
2018-02-25T06:03:31.239Z,99.90
2018-02-25T06:05:59.486Z,99.90
2018-02-25T06:08:28.514Z,99.90
2018-02-25T06:10:56.766Z,99.90
2018-02-25T06:13:25.798Z,99.90
2018-02-25T06:15:54.053Z,99.90
2018-02-25T06:18:22.315Z,99.90
2018-02-25T06:20:51.338Z,99.90
2018-02-25T06:23:19.594Z,99.90
2018-02-25T06:25:47.846Z,99.90
2018-02-25T06:28:16.867Z,99.90
2018-02-25T06:30:45.121Z,99.90
2018-02-25T06:33:14.138Z,99.90
2018-02-25T06:35:42.388Z,99.90
2018-02-25T06:38:11.409Z,99.90
2018-02-25T06:40:39.657Z,99.90
2018-02-25T06:43:08.673Z,99.90
2018-02-25T06:45:36.927Z,99.90
2018-02-25T06:48:05.946Z,99.90
2018-02-25T06:50:34.204Z,99.90
2018-02-25T06:53:03.230Z,99.90
2018-02-25T06:55:31.478Z,99.90
2018-02-25T06:57:59.734Z,99.90
2018-02-25T07:00:28.753Z,99.90
2018-02-25T07:02:57.005Z,99.90
2018-02-25T07:05:26.023Z,99.90
2018-02-25T07:07:54.278Z,99.90
2018-02-25T07:10:23.295Z,99.90
2018-02-25T07:12:51.553Z,99.90
2018-02-25T07:15:20.669Z,99.90
2018-02-25T07:17:48.929Z,99.90
2018-02-25T07:20:17.184Z,99.90
2018-02-25T07:22:45.441Z,99.90
2018-02-25T07:25:13.729Z,99.90
2018-02-25T07:27:41.984Z,99.90
2018-02-25T07:30:10.245Z,99.90
2018-02-25T07:32:38.493Z,99.90
2018-02-25T07:35:06.758Z,99.90
2018-02-25T07:37:35.013Z,99.90
2018-02-25T07:40:03.277Z,99.90
2018-02-25T07:42:31.576Z,99.90
2018-02-25T07:44:59.773Z,99.90
2018-02-25T07:47:28.037Z,99.90
2018-02-25T07:49:57.060Z,99.90
2018-02-25T07:52:25.306Z,99.90
2018-02-25T07:54:53.566Z,99.90
2018-02-25T07:57:22.578Z,99.90
2018-02-25T07:59:50.851Z,99.90
2018-02-25T08:02:19.105Z,99.90
2018-02-25T08:04:47.360Z,99.90
2018-02-25T08:07:15.609Z,99.90
2018-02-25T08:09:43.867Z,99.90
2018-02-25T08:12:12.113Z,99.90
2018-02-25T08:14:41.137Z,99.90
2018-02-25T08:17:09.405Z,99.90
2018-02-25T08:19:37.670Z,99.90
2018-02-25T08:22:06.683Z,99.90
2018-02-25T08:24:34.946Z,99.90
2018-02-25T08:27:03.206Z,99.90
2018-02-25T08:29:32.226Z,99.90
2018-02-25T08:32:00.465Z,99.90
2018-02-25T08:34:29.498Z,99.90
2018-02-25T08:36:57.751Z,99.90
2018-02-25T08:39:26.011Z,99.90
2018-02-25T08:41:55.089Z,99.90
2018-02-25T08:44:23.278Z,99.90
2018-02-25T08:46:52.299Z,99.90
2018-02-25T08:49:20.542Z,99.90
2018-02-25T08:51:49.567Z,99.10
2018-02-25T08:54:17.819Z,98.80
2018-02-25T08:56:46.842Z,99.10
2018-02-25T08:59:15.093Z,99.10
2018-02-25T09:01:44.118Z,97.20
2018-02-25T09:04:12.366Z,97.20
2018-02-25T09:06:41.391Z,96.50
2018-02-25T09:09:09.750Z,96.40
2018-02-25T09:11:38.012Z,96.70
2018-02-25T09:14:07.025Z,96.70
2018-02-25T09:16:35.279Z,96.80
2018-02-25T09:19:04.293Z,95.40
2018-02-25T09:21:32.556Z,95.40
2018-02-25T09:24:01.569Z,93.30
2018-02-25T09:26:29.827Z,93.40
2018-02-25T09:28:58.086Z,92.90
2018-02-25T09:31:27.106Z,90.30
2018-02-25T09:33:55.352Z,90.40
2018-02-25T09:36:24.376Z,87.30
2018-02-25T09:38:52.628Z,89.20
2018-02-25T09:41:21.696Z,71.10
2018-02-25T09:43:49.889Z,70.90
2018-02-25T09:46:18.907Z,72.40
2018-02-25T09:48:47.162Z,72.30
2018-02-25T09:51:15.415Z,74.10
2018-02-25T09:53:43.710Z,68.40
2018-02-25T09:56:11.952Z,64.10
2018-02-25T09:58:40.193Z,61.50
2018-02-25T10:01:08.465Z,57.80
2018-02-25T10:03:36.722Z,56.30
2018-02-25T10:06:05.739Z,53.70
2018-02-25T10:08:34.023Z,53.70
2018-02-25T10:11:03.010Z,53.90
2018-02-25T10:13:31.262Z,54.00
2018-02-25T10:16:00.265Z,51.80
2018-02-25T10:18:28.529Z,51.80
2018-02-25T10:20:57.539Z,51.30
2018-02-25T10:23:25.785Z,51.30
2018-02-25T10:25:54.793Z,50.50
2018-02-25T10:28:23.809Z,49.00
2018-02-25T10:30:52.071Z,49.30
2018-02-25T10:33:20.322Z,48.70
2018-02-25T10:35:49.334Z,48.40
2018-02-25T10:38:17.594Z,47.90
2018-02-25T10:40:46.616Z,47.00
2018-02-25T10:43:14.862Z,46.90
2018-02-25T10:45:43.879Z,47.50
2018-02-25T10:48:12.127Z,47.30
2018-02-25T10:50:40.382Z,46.60
2018-02-25T10:53:08.625Z,45.50
2018-02-25T10:55:36.878Z,45.70
2018-02-25T10:58:05.126Z,44.60
2018-02-25T11:00:37.241Z,45.10
2018-02-25T11:03:05.484Z,45.30
2018-02-25T11:05:34.512Z,43.90
2018-02-25T11:08:02.750Z,43.80
2018-02-25T11:10:31.767Z,43.10
2018-02-25T11:13:00.018Z,43.10
2018-02-25T11:15:29.053Z,39.10
2018-02-25T11:17:57.290Z,39.10
2018-02-25T11:20:26.308Z,37.50
2018-02-25T11:22:54.567Z,37.50
2018-02-25T11:25:22.835Z,37.40
2018-02-25T11:27:51.864Z,34.60
2018-02-25T11:30:20.120Z,34.50
2018-02-25T11:32:48.377Z,34.70
2018-02-25T11:35:17.398Z,34.20
2018-02-25T11:37:45.642Z,34.10
2018-02-25T11:40:14.675Z,32.90
2018-02-25T11:42:42.918Z,32.80
2018-02-25T11:45:11.942Z,33.60
2018-02-25T11:47:40.230Z,33.50
2018-02-25T11:50:09.200Z,32.80
2018-02-25T11:52:37.462Z,32.80
2018-02-25T11:55:06.459Z,32.80
2018-02-25T11:57:34.702Z,33.20
2018-02-25T12:00:02.945Z,32.90
2018-02-25T12:02:31.177Z,31.70
2018-02-25T12:04:59.428Z,30.70
2018-02-25T12:07:27.666Z,31.40
2018-02-25T12:09:55.912Z,30.20
2018-02-25T12:12:24.150Z,30.40
2018-02-25T12:14:59.262Z,31.70
2018-02-25T12:17:20.634Z,31.60
2018-02-25T12:19:48.873Z,30.60
2018-02-25T12:22:17.145Z,29.50
2018-02-25T12:24:45.395Z,29.50
2018-02-25T12:27:13.633Z,29.10
2018-02-25T12:29:41.862Z,30.80
2018-02-25T12:32:10.111Z,30.20
2018-02-25T12:34:38.348Z,30.00
2018-02-25T12:37:07.350Z,29.00
2018-02-25T12:39:35.585Z,29.00
2018-02-25T12:42:05.337Z,29.50
2018-02-25T12:44:34.422Z,28.90
2018-02-25T12:47:02.699Z,28.40
2018-02-25T12:49:31.702Z,28.50
2018-02-25T12:51:59.942Z,28.50
2018-02-25T12:54:28.183Z,28.40
2018-02-25T12:56:56.434Z,27.70
2018-02-25T12:59:24.690Z,27.30
2018-02-25T13:01:53.754Z,27.00
2018-02-25T13:04:22.020Z,26.90
2018-02-25T13:06:50.258Z,26.40
2018-02-25T13:09:18.489Z,26.20
2018-02-25T13:11:46.748Z,26.90
2018-02-25T13:14:14.987Z,27.30
2018-02-25T13:16:43.237Z,26.20
2018-02-25T13:19:12.238Z,26.20
2018-02-25T13:21:40.489Z,26.20
2018-02-25T13:24:08.725Z,26.50
2018-02-25T13:26:36.967Z,26.60
2018-02-25T13:29:05.196Z,26.10
2018-02-25T13:31:33.462Z,26.20
2018-02-25T13:34:01.720Z,26.70
2018-02-25T13:36:29.968Z,26.50
2018-02-25T13:38:58.253Z,25.40
2018-02-25T13:41:26.574Z,25.10
2018-02-25T13:43:54.812Z,26.00
2018-02-25T13:46:23.060Z,25.60
2018-02-25T13:48:52.070Z,24.70
2018-02-25T13:51:20.354Z,24.60
2018-02-25T13:53:49.105Z,25.00
2018-02-25T13:56:18.390Z,25.50
2018-02-25T13:58:46.771Z,25.50
2018-02-25T14:01:15.281Z,25.30
2018-02-25T14:03:43.674Z,25.60
2018-02-25T14:06:12.113Z,25.10
2018-02-25T14:08:41.340Z,25.40
2018-02-25T14:11:09.857Z,25.30
2018-02-25T14:13:38.311Z,25.00
2018-02-25T14:16:06.753Z,24.30
2018-02-25T14:18:35.169Z,24.10
2018-02-25T14:21:03.632Z,24.60
2018-02-25T14:23:33.282Z,25.10
2018-02-25T14:26:02.582Z,25.10
2018-02-25T14:28:31.419Z,25.10
2018-02-25T14:31:00.730Z,24.80
2018-02-25T14:33:30.292Z,25.70
2018-02-25T14:35:58.773Z,25.70
2018-02-25T14:38:27.166Z,25.40
2018-02-25T14:40:55.435Z,25.30
2018-02-25T14:43:24.452Z,25.50
2018-02-25T14:45:53.459Z,25.70
2018-02-25T14:48:22.473Z,25.10
2018-02-25T14:50:50.744Z,25.10
2018-02-25T14:53:19.014Z,27.10
2018-02-25T14:55:48.008Z,26.10
2018-02-25T14:58:16.256Z,26.10
2018-02-25T15:00:44.503Z,24.80
2018-02-25T15:03:12.743Z,24.80
2018-02-25T15:05:40.990Z,25.20
2018-02-25T15:08:09.994Z,25.30
2018-02-25T15:10:38.243Z,25.30
2018-02-25T15:13:07.647Z,26.10
2018-02-25T15:15:36.654Z,24.80
2018-02-25T15:18:05.696Z,26.10
2018-02-25T15:20:33.933Z,26.10
2018-02-25T15:23:02.200Z,25.30
2018-02-25T15:25:31.212Z,25.00
2018-02-25T15:27:59.459Z,25.00
2018-02-25T15:30:28.464Z,25.20
2018-02-25T15:32:57.485Z,25.40
2018-02-25T15:35:25.739Z,25.40
2018-02-25T15:37:54.749Z,25.90
2018-02-25T15:40:23.004Z,25.90
2018-02-25T15:42:52.012Z,25.80
2018-02-25T15:45:20.261Z,25.80
2018-02-25T15:47:49.277Z,26.30
2018-02-25T15:50:17.560Z,26.30
2018-02-25T15:52:45.811Z,25.30
2018-02-25T15:55:14.970Z,25.70
2018-02-25T15:57:43.235Z,27.20
2018-02-25T16:00:11.749Z,28.60
2018-02-25T16:02:40.783Z,29.90
2018-02-25T16:05:09.187Z,29.80
2018-02-25T16:07:37.589Z,30.50
2018-02-25T16:10:05.926Z,30.90
2018-02-25T16:12:34.194Z,30.60
2018-02-25T16:15:02.768Z,30.90
2018-02-25T16:17:31.154Z,31.80
2018-02-25T16:19:59.318Z,31.60
2018-02-25T16:22:27.705Z,31.60
2018-02-25T16:24:56.144Z,31.70
2018-02-25T16:27:24.404Z,32.40
2018-02-25T16:29:52.889Z,32.60
2018-02-25T16:32:21.204Z,31.90
2018-02-25T16:34:49.650Z,31.30
2018-02-25T16:37:18.140Z,31.90
2018-02-25T16:39:47.378Z,32.50
2018-02-25T16:42:15.753Z,32.40
2018-02-25T16:44:44.156Z,32.40
2018-02-25T16:47:12.586Z,32.90
2018-02-25T16:49:41.843Z,32.90
2018-02-25T16:52:11.357Z,32.80
2018-02-25T16:54:39.904Z,32.80
2018-02-25T16:57:08.307Z,32.80
2018-02-25T16:59:36.750Z,33.90
2018-02-25T17:02:07.448Z,34.00
2018-02-25T17:04:40.538Z,34.20
2018-02-25T17:07:09.086Z,34.10
2018-02-25T17:09:37.622Z,35.20
2018-02-25T17:12:07.407Z,35.10
2018-02-25T17:14:36.671Z,35.00
2018-02-25T17:17:05.312Z,35.40
2018-02-25T17:19:34.580Z,35.50
2018-02-25T17:22:03.080Z,35.50
2018-02-25T17:24:32.321Z,35.70
2018-02-25T17:27:01.976Z,35.60
2018-02-25T17:29:30.846Z,36.40
2018-02-25T17:32:00.308Z,35.70
2018-02-25T17:34:30.773Z,35.70
2018-02-25T17:36:59.385Z,35.70
2018-02-25T17:39:27.971Z,35.80
2018-02-25T17:41:56.411Z,36.10
2018-02-25T17:44:24.959Z,36.30
2018-02-25T17:46:53.399Z,36.30
2018-02-25T17:49:21.696Z,36.40
2018-02-25T17:51:49.972Z,36.20
2018-02-25T17:54:18.252Z,36.50
2018-02-25T17:56:47.311Z,36.60
2018-02-25T17:59:15.607Z,36.60
2018-02-25T18:01:43.865Z,36.80
2018-02-25T18:04:12.157Z,37.30
2018-02-25T18:06:40.435Z,37.20
2018-02-25T18:09:08.715Z,37.30
2018-02-25T18:11:36.985Z,37.70
2018-02-25T18:14:05.278Z,37.80
2018-02-25T18:16:34.309Z,38.30
2018-02-25T18:19:02.577Z,38.20
2018-02-25T18:21:30.837Z,38.20
2018-02-25T18:26:56.790Z,38.10
2018-02-25T18:29:25.068Z,38.30
2018-02-25T18:49:40.058Z,38.30
2018-02-25T18:52:08.355Z,38.60
2018-02-25T18:54:36.642Z,38.40
2018-02-25T18:57:04.938Z,38.30
2018-02-25T18:59:33.995Z,38.40
2018-02-25T19:02:02.274Z,38.40
2018-02-25T19:04:30.566Z,38.40
2018-02-25T19:06:58.843Z,38.90
2018-02-25T19:09:27.137Z,38.90
2018-02-25T19:11:56.190Z,38.90
2018-02-25T19:14:24.478Z,38.90
2018-02-25T19:16:52.762Z,39.30
2018-02-25T19:19:21.033Z,39.60
2018-02-25T19:21:49.319Z,39.90
2018-02-25T19:24:17.672Z,40.60
2018-02-25T19:26:45.937Z,40.90
2018-02-25T19:29:14.186Z,41.00
2018-02-25T19:31:42.484Z,41.40
2018-02-25T19:34:10.758Z,41.50
2018-02-25T19:36:44.563Z,41.80
2018-02-25T19:39:18.362Z,41.90
2018-02-25T19:41:52.247Z,42.30
2018-02-25T19:44:20.504Z,42.50
2018-02-25T19:46:49.525Z,42.80
2018-02-25T19:49:17.776Z,42.50
2018-02-25T19:51:46.815Z,42.40
2018-02-25T19:54:15.083Z,42.40
2018-02-25T19:56:43.347Z,43.00
2018-02-25T19:59:11.609Z,43.50
2018-02-25T20:01:40.653Z,43.90
2018-02-25T20:04:08.946Z,43.90
2018-02-25T20:06:37.253Z,44.30
2018-02-25T20:09:06.296Z,44.40
2018-02-25T20:11:34.569Z,44.30
2018-02-25T20:14:02.833Z,44.80
2018-02-25T20:16:31.094Z,44.90
2018-02-25T20:18:59.350Z,45.40
2018-02-25T20:21:28.385Z,45.90
2018-02-25T20:23:56.642Z,45.80
2018-02-25T20:26:24.901Z,46.00
2018-02-25T20:28:53.158Z,46.60
2018-02-25T20:31:22.230Z,47.00
2018-02-25T20:33:50.492Z,47.00
2018-02-25T20:36:18.781Z,47.00
2018-02-25T20:38:47.044Z,47.70
2018-02-25T20:41:15.299Z,48.10
2018-02-25T20:43:43.555Z,48.20
2018-02-25T20:46:11.826Z,48.30
2018-02-25T20:48:40.081Z,48.60
2018-02-25T20:51:09.118Z,48.50
2018-02-25T20:53:37.368Z,48.50
2018-02-25T20:56:05.669Z,49.10
2018-02-25T20:58:33.928Z,50.10
2018-02-25T21:01:02.455Z,50.20
2018-02-25T21:03:30.921Z,50.00
2018-02-25T21:05:59.448Z,50.00
2018-02-25T21:08:28.940Z,50.50
2018-02-25T21:10:57.631Z,50.50
2018-02-25T21:13:26.091Z,50.30
2018-02-25T21:15:54.570Z,51.60
2018-02-25T21:18:23.062Z,51.20
2018-02-25T21:20:51.684Z,52.10
2018-02-25T21:23:20.186Z,52.30
2018-02-25T21:25:48.651Z,52.50
2018-02-25T21:28:17.127Z,52.50
2018-02-25T21:30:45.576Z,53.30
2018-02-25T21:33:14.740Z,53.90
2018-02-25T21:35:43.479Z,53.80
2018-02-25T21:38:11.953Z,55.20
2018-02-25T21:40:41.196Z,59.30
2018-02-25T21:43:10.076Z,59.00
2018-02-25T21:45:38.512Z,60.40
2018-02-25T21:48:07.705Z,62.70
2018-02-25T21:50:36.161Z,62.50
2018-02-25T21:53:04.744Z,66.80
2018-02-25T21:55:33.272Z,67.00
2018-02-25T21:58:07.519Z,67.90
2018-02-25T22:00:41.444Z,70.40
2018-02-25T22:03:30.593Z,70.20
2018-02-25T22:05:59.095Z,73.50
2018-02-25T22:08:27.533Z,75.40
2018-02-25T22:10:55.956Z,77.50
2018-02-25T22:13:24.390Z,83.10
2018-02-25T22:15:52.822Z,82.30
2018-02-25T22:18:21.245Z,85.40
2018-02-25T22:20:49.696Z,89.20
2018-02-25T22:23:18.777Z,87.80
2018-02-25T22:25:47.094Z,87.70
2018-02-25T22:28:15.380Z,90.70
2018-02-25T22:30:43.655Z,90.40
2018-02-25T22:33:11.978Z,90.90
2018-02-25T22:35:40.254Z,91.40
2018-02-25T22:38:08.552Z,92.10
2018-02-25T22:40:37.613Z,92.60
2018-02-25T22:43:05.906Z,92.40
2018-02-25T22:45:34.184Z,93.00
2018-02-25T22:48:02.464Z,93.10
2018-02-25T22:50:30.764Z,93.70
2018-02-25T22:52:59.828Z,94.10
2018-02-25T22:55:28.120Z,94.00
2018-02-25T22:57:56.428Z,94.50
2018-02-25T23:00:24.748Z,94.60
2018-02-25T23:02:53.040Z,94.70
2018-02-25T23:05:21.320Z,94.50
2018-02-25T23:07:49.637Z,94.90
2018-02-25T23:10:17.966Z,95.30
2018-02-25T23:12:46.255Z,95.40
2018-02-25T23:15:14.566Z,95.80
2018-02-25T23:17:42.867Z,95.90
2018-02-25T23:20:11.182Z,96.60
2018-02-25T23:22:39.508Z,96.60
2018-02-25T23:25:07.802Z,96.60
2018-02-25T23:27:36.080Z,97.10
2018-02-25T23:30:04.398Z,97.30
2018-02-25T23:32:33.452Z,97.60
2018-02-25T23:35:01.763Z,97.60
2018-02-25T23:37:30.052Z,98.00
2018-02-25T23:39:59.102Z,98.10
2018-02-25T23:42:27.383Z,98.10
2018-02-25T23:44:55.689Z,98.20
2018-02-25T23:47:24.729Z,98.30
2018-02-25T23:49:53.009Z,98.30
2018-02-25T23:52:21.301Z,98.30
2018-02-25T23:54:49.582Z,98.40
2018-02-25T23:57:17.918Z,98.80
2018-02-25T23:59:46.220Z,98.70
